Time;durP1;ratioP1;P1;durP2;ratioP2;P2;SDS_P1;SDS_P2;PMS_P1;PMS_P2;Temp;Humidity;BMP_temperature;BMP_pressure;BME280_temperature;BME280_humidity;BME280_pressure;Samples;Min_cycle;Max_cycle;Signal;HPM_P1;HPM_P2
2022/09/25 00:01:13;;;;;;;5.93;4.10;;;11.00;99.90;;;;;;5077421;28;20020;-71
2022/09/25 00:03:39;;;;;;;4.93;3.60;;;11.00;99.90;;;;;;5076558;28;20020;-71
2022/09/25 00:06:10;;;;;;;5.20;4.10;;;11.00;99.90;;;;;;5076817;28;20104;-71
2022/09/25 00:08:36;;;;;;;4.85;3.67;;;11.00;99.90;;;;;;5077067;28;20033;-71
2022/09/25 00:11:12;;;;;;;5.53;3.58;;;11.00;99.90;;;;;;5076744;28;20025;-71
2022/09/25 00:13:39;;;;;;;5.28;3.88;;;11.10;99.90;;;;;;5076939;28;20025;-71
2022/09/25 00:16:08;;;;;;;4.82;3.75;;;11.10;99.90;;;;;;5077154;28;20029;-72
2022/09/25 00:21:18;;;;;;;5.35;3.33;;;11.10;99.90;;;;;;5076766;28;20515;-71
2022/09/25 00:23:45;;;;;;;5.35;3.80;;;11.20;99.90;;;;;;5076970;28;20423;-72
2022/09/25 00:26:12;;;;;;;4.43;3.70;;;11.20;99.90;;;;;;5076675;28;20027;-72
2022/09/25 00:28:39;;;;;;;6.18;3.70;;;11.20;99.90;;;;;;5076601;28;20059;-72
2022/09/25 00:31:06;;;;;;;4.97;3.58;;;11.10;99.90;;;;;;5076835;28;20055;-72
2022/09/25 00:33:32;;;;;;;5.28;3.63;;;11.20;99.90;;;;;;5076193;28;20025;-71
2022/09/25 00:36:06;;;;;;;4.70;3.25;;;11.20;99.90;;;;;;5075962;28;20035;-72
2022/09/25 00:38:34;;;;;;;5.32;3.80;;;11.20;99.90;;;;;;5076377;28;20021;-72
2022/09/25 00:41:01;;;;;;;5.28;3.65;;;11.20;99.90;;;;;;5076686;28;20411;-72
2022/09/25 00:43:55;;;;;;;5.68;3.80;;;11.20;99.90;;;;;;5076018;28;20028;-72
2022/09/25 00:46:34;;;;;;;4.10;3.10;;;11.30;99.90;;;;;;5074487;28;20553;-72
2022/09/25 00:49:09;;;;;;;5.60;4.13;;;11.20;99.90;;;;;;5075797;28;20032;-71
2022/09/25 00:51:44;;;;;;;5.40;3.83;;;11.20;99.90;;;;;;5075963;28;20388;-72
2022/09/25 00:54:17;;;;;;;4.13;3.38;;;11.20;99.90;;;;;;5076043;28;20020;-72
2022/09/25 00:56:46;;;;;;;4.70;3.65;;;11.20;99.90;;;;;;5075687;28;20044;-72
2022/09/25 00:59:18;;;;;;;4.75;3.33;;;11.20;99.90;;;;;;5074766;28;20030;-72
2022/09/25 01:01:45;;;;;;;4.07;3.60;;;11.10;99.90;;;;;;5057802;28;20112;-72
2022/09/25 01:04:12;;;;;;;4.65;3.45;;;11.10;99.90;;;;;;5075612;28;20124;-72
2022/09/25 01:06:38;;;;;;;4.10;3.55;;;11.10;99.90;;;;;;5076133;28;20047;-72
2022/09/25 01:09:04;;;;;;;4.43;3.65;;;11.10;99.90;;;;;;5075907;28;20465;-72
2022/09/25 01:11:30;;;;;;;4.15;3.30;;;11.10;99.90;;;;;;5075597;28;20051;-72
2022/09/25 01:13:59;;;;;;;5.18;4.10;;;11.00;99.90;;;;;;5075428;28;20103;-71
2022/09/25 01:16:46;;;;;;;5.85;3.88;;;11.00;99.90;;;;;;5075736;28;20024;-72
2022/09/25 01:19:44;;;;;;;5.82;3.80;;;10.90;99.90;;;;;;5075178;28;20031;-72
2022/09/25 01:22:22;;;;;;;4.55;3.38;;;10.90;99.90;;;;;;5075919;28;20021;-72
2022/09/25 01:25:18;;;;;;;4.70;3.60;;;11.00;99.90;;;;;;5075323;28;20150;-72
2022/09/25 01:28:08;;;;;;;4.93;3.58;;;11.00;99.90;;;;;;5075157;28;20028;-72
2022/09/25 01:30:40;;;;;;;6.22;3.90;;;10.90;99.90;;;;;;5075800;28;20095;-73
2022/09/25 01:33:17;;;;;;;4.70;3.67;;;10.90;99.90;;;;;;5075479;28;20477;-72
2022/09/25 01:36:01;;;;;;;6.30;4.60;;;10.90;99.90;;;;;;5074866;28;20051;-72
2022/09/25 01:39:02;;;;;;;5.35;4.03;;;10.80;99.90;;;;;;5074947;28;20033;-72
2022/09/25 01:41:36;;;;;;;5.15;3.90;;;10.80;99.90;;;;;;5064732;28;20071;-73
2022/09/25 01:44:08;;;;;;;5.13;3.55;;;10.80;99.90;;;;;;5075172;28;20048;-72
2022/09/25 01:46:41;;;;;;;5.10;3.92;;;10.80;99.90;;;;;;5075189;28;20028;-73
2022/09/25 01:49:31;;;;;;;7.47;4.20;;;10.80;99.90;;;;;;5075035;28;20043;-72
2022/09/25 01:51:58;;;;;;;6.03;4.32;;;10.80;99.90;;;;;;5074828;28;20038;-73
2022/09/25 01:54:32;;;;;;;8.98;4.53;;;10.80;99.90;;;;;;5074653;28;20472;-72
2022/09/25 01:57:12;;;;;;;7.05;4.63;;;10.80;99.90;;;;;;5074870;28;20028;-73
2022/09/25 01:59:50;;;;;;;6.07;3.88;;;10.80;99.90;;;;;;5074700;28;20473;-73
2022/09/25 02:02:21;;;;;;;6.65;4.40;;;10.80;99.90;;;;;;5074652;28;20016;-73
2022/09/25 02:05:01;;;;;;;6.25;4.57;;;10.80;99.90;;;;;;5074561;28;20028;-73
2022/09/25 02:07:35;;;;;;;6.45;4.15;;;10.80;99.90;;;;;;5074583;28;20472;-72
2022/09/25 02:10:24;;;;;;;6.50;4.40;;;10.80;99.90;;;;;;5074321;28;20044;-72
2022/09/25 02:12:54;;;;;;;6.63;3.75;;;10.80;99.90;;;;;;5074456;28;20137;-72
2022/09/25 02:15:29;;;;;;;4.63;3.67;;;10.80;99.90;;;;;;5074634;28;20506;-72
2022/09/25 02:20:49;;;;;;;5.50;3.35;;;10.80;99.90;;;;;;5074037;28;20031;-72
2022/09/25 02:23:19;;;;;;;5.50;3.53;;;10.80;99.90;;;;;;5074239;28;20024;-72
2022/09/25 02:26:07;;;;;;;7.40;3.80;;;10.80;99.90;;;;;;5074095;28;20021;-72
2022/09/25 02:28:32;;;;;;;7.75;4.53;;;10.80;99.90;;;;;;5056204;28;20277;-72
2022/09/25 02:31:01;;;;;;;5.72;4.53;;;10.70;99.90;;;;;;5074054;28;20024;-72
2022/09/25 02:33:28;;;;;;;7.70;4.25;;;10.70;99.90;;;;;;5073846;28;20035;-72
2022/09/25 02:35:54;;;;;;;7.40;4.82;;;10.70;99.90;;;;;;5073702;28;20533;-72
2022/09/25 02:38:20;;;;;;;6.03;4.68;;;10.70;99.90;;;;;;5074331;28;20025;-72
2022/09/25 02:41:14;;;;;;;6.38;4.50;;;10.60;99.90;;;;;;5073866;28;20077;-72
2022/09/25 02:43:51;;;;;;;6.32;4.25;;;10.60;99.90;;;;;;5074270;28;20100;-72
2022/09/25 02:46:35;;;;;;;5.75;3.80;;;10.60;99.90;;;;;;5073671;28;20017;-72
2022/09/25 02:49:40;;;;;;;6.03;3.88;;;10.60;99.90;;;;;;5055803;28;20465;-72
2022/09/25 02:52:32;;;;;;;4.68;3.70;;;10.60;99.90;;;;;;5073984;28;20074;-72
2022/09/25 02:55:04;;;;;;;5.43;3.83;;;10.60;99.90;;;;;;5055567;28;20036;-72
2022/09/25 02:57:51;;;;;;;4.20;3.55;;;10.60;99.90;;;;;;5073552;28;20038;-73
2022/09/25 03:00:17;;;;;;;5.50;3.95;;;10.70;99.90;;;;;;5073555;28;20476;-72
2022/09/25 03:02:45;;;;;;;5.35;3.60;;;10.60;99.90;;;;;;5073446;28;20108;-72
2022/09/25 03:05:13;;;;;;;4.65;3.85;;;10.60;99.90;;;;;;5073472;28;20109;-72
2022/09/25 03:10:24;;;;;;;5.60;3.65;;;10.60;99.90;;;;;;5073982;28;20039;-73
2022/09/25 03:12:50;;;;;;;7.00;3.80;;;10.70;99.90;;;;;;5073905;28;20021;-73
2022/09/25 03:15:16;;;;;;;4.95;3.78;;;10.70;99.90;;;;;;5073272;28;20107;-72
2022/09/25 03:17:42;;;;;;;5.22;3.83;;;10.70;99.90;;;;;;5073246;28;20117;-72
2022/09/25 03:20:08;;;;;;;5.15;4.10;;;10.60;99.90;;;;;;5072983;28;20433;-72
2022/09/25 03:22:36;;;;;;;4.75;3.50;;;10.70;99.90;;;;;;5072505;28;20021;-72
2022/09/25 03:25:03;;;;;;;4.93;3.58;;;10.70;99.90;;;;;;5055077;28;20078;-72
2022/09/25 03:27:28;;;;;;;7.38;4.30;;;10.70;99.90;;;;;;5073172;28;20047;-72
2022/09/25 03:29:54;;;;;;;9.30;5.15;;;10.60;99.90;;;;;;5073670;28;20481;-72
2022/09/25 03:32:20;;;;;;;6.47;4.55;;;10.60;99.90;;;;;;5073633;28;20029;-72
2022/09/25 03:34:46;;;;;;;6.78;3.88;;;10.50;99.90;;;;;;5072801;28;20029;-72
2022/09/25 03:37:12;;;;;;;6.80;4.15;;;10.50;99.90;;;;;;5073607;28;20046;-72
2022/09/25 03:39:37;;;;;;;5.97;4.28;;;10.50;99.90;;;;;;5073010;28;20043;-72
2022/09/25 03:42:04;;;;;;;6.35;4.13;;;10.50;99.90;;;;;;5073034;28;20484;-72
2022/09/25 03:44:30;;;;;;;8.20;4.93;;;10.40;99.90;;;;;;5072934;28;20473;-72
2022/09/25 03:46:56;;;;;;;6.18;4.43;;;10.40;99.90;;;;;;5073056;28;20032;-73
2022/09/25 03:49:21;;;;;;;7.45;4.95;;;10.40;99.90;;;;;;5072657;28;20056;-71
2022/09/25 03:51:47;;;;;;;6.40;4.38;;;10.40;99.90;;;;;;5072073;28;20077;-73
2022/09/25 03:54:13;;;;;;;5.78;4.57;;;10.50;99.90;;;;;;5073215;28;20055;-72
2022/09/25 03:56:39;;;;;;;5.30;3.80;;;10.50;99.90;;;;;;5072869;28;20067;-73
2022/09/25 03:59:05;;;;;;;5.50;4.15;;;10.50;99.90;;;;;;5073069;28;20064;-73
2022/09/25 04:01:30;;;;;;;5.47;3.90;;;10.50;99.90;;;;;;5072839;28;20090;-73
2022/09/25 04:03:56;;;;;;;5.18;4.07;;;10.50;99.90;;;;;;5072801;28;20025;-72
2022/09/25 04:06:24;;;;;;;4.43;3.28;;;10.50;99.90;;;;;;5072565;28;20021;-72
2022/09/25 04:08:51;;;;;;;4.95;3.97;;;10.50;99.90;;;;;;5072801;28;20024;-73
2022/09/25 04:11:21;;;;;;;5.60;4.05;;;10.50;99.90;;;;;;5072717;28;20550;-73
2022/09/25 04:13:47;;;;;;;4.40;3.35;;;10.50;99.90;;;;;;5073165;28;20063;-72
2022/09/25 04:16:15;;;;;;;4.40;3.40;;;10.50;99.90;;;;;;5072730;28;20460;-74
2022/09/25 04:18:41;;;;;;;5.40;3.60;;;10.50;99.90;;;;;;5072635;28;20033;-73
2022/09/25 04:21:09;;;;;;;4.40;3.42;;;10.40;99.90;;;;;;5072397;28;20031;-72
2022/09/25 04:23:35;;;;;;;5.03;3.03;;;10.40;99.90;;;;;;5072575;28;20144;-72
2022/09/25 04:26:01;;;;;;;6.45;3.60;;;10.40;99.90;;;;;;5072589;28;20032;-73
2022/09/25 04:28:30;;;;;;;4.78;3.58;;;10.40;99.90;;;;;;5072584;28;20103;-73
2022/09/25 04:30:56;;;;;;;5.38;3.72;;;10.50;99.90;;;;;;5072544;28;20024;-72
2022/09/25 04:36:06;;;;;;;58.67;26.63;;;10.50;99.90;;;;;;5075378;28;20066;-72
2022/09/25 04:38:32;;;;;;;41.55;22.33;;;10.50;99.90;;;;;;5076402;28;20056;-73
2022/09/25 04:41:02;;;;;;;22.75;16.10;;;10.40;99.90;;;;;;5076210;28;20503;-73
2022/09/25 04:43:31;;;;;;;18.70;12.38;;;10.40;99.90;;;;;;5076260;28;20498;-71
2022/09/25 04:46:05;;;;;;;10.63;8.52;;;10.40;99.90;;;;;;5076049;28;20024;-73
2022/09/25 04:48:32;;;;;;;8.98;7.35;;;10.40;99.90;;;;;;5076010;28;20051;-73
2022/09/25 04:50:57;;;;;;;6.30;5.15;;;10.40;99.90;;;;;;5075937;28;20020;-72
2022/09/25 04:53:26;;;;;;;6.10;4.72;;;10.40;99.90;;;;;;5075881;28;20526;-71
2022/09/25 04:55:54;;;;;;;7.13;4.43;;;10.40;99.90;;;;;;5075890;28;20049;-73
2022/09/25 04:58:20;;;;;;;5.97;4.45;;;10.40;99.90;;;;;;5075727;28;20120;-73
2022/09/25 05:00:45;;;;;;;5.45;3.92;;;10.40;99.90;;;;;;5075744;28;20484;-73
2022/09/25 05:03:11;;;;;;;5.05;3.85;;;10.40;99.90;;;;;;5076004;28;20075;-73
2022/09/25 05:05:37;;;;;;;4.78;3.58;;;10.40;99.90;;;;;;5075390;28;20032;-72
2022/09/25 05:08:03;;;;;;;4.95;3.60;;;10.50;99.90;;;;;;5075847;28;20026;-73
2022/09/25 05:10:33;;;;;;;5.22;3.55;;;10.50;99.90;;;;;;5057908;28;20063;-73
2022/09/25 05:13:01;;;;;;;6.20;4.13;;;10.50;99.90;;;;;;5074382;28;20033;-72
2022/09/25 05:15:29;;;;;;;6.63;4.53;;;10.50;99.90;;;;;;5075056;28;20052;-72
2022/09/25 05:18:01;;;;;;;7.72;4.43;;;10.60;99.90;;;;;;5075197;28;20100;-72
2022/09/25 05:20:27;;;;;;;5.97;4.50;;;10.50;99.90;;;;;;5073563;28;20423;-72
2022/09/25 05:22:58;;;;;;;6.45;4.35;;;10.60;99.90;;;;;;5075265;28;20077;-72
2022/09/25 05:25:25;;;;;;;6.45;4.55;;;10.50;99.90;;;;;;5074745;28;20032;-72
2022/09/25 05:27:57;;;;;;;5.22;4.30;;;10.60;99.90;;;;;;5075126;28;20021;-72
2022/09/25 05:30:27;;;;;;;17.10;9.27;;;10.60;99.90;;;;;;5073951;28;20044;-72
2022/09/25 05:32:52;;;;;;;26.55;13.43;;;10.60;99.90;;;;;;5075010;28;20044;-72
2022/09/25 05:35:20;;;;;;;24.20;12.35;;;10.60;99.90;;;;;;5073402;28;20578;-72
2022/09/25 05:37:46;;;;;;;20.20;9.63;;;10.60;99.90;;;;;;5056065;28;20032;-72
2022/09/25 05:40:14;;;;;;;15.13;8.18;;;10.60;99.90;;;;;;5074832;28;20170;-72
2022/09/25 05:42:43;;;;;;;12.60;7.07;;;10.60;99.90;;;;;;5074782;28;20306;-72
2022/09/25 05:45:12;;;;;;;8.95;5.97;;;10.60;99.90;;;;;;5073935;28;20194;-72
2022/09/25 05:47:39;;;;;;;7.53;4.97;;;10.60;99.90;;;;;;5074707;28;20483;-72
2022/09/25 05:50:05;;;;;;;6.00;4.38;;;10.60;99.90;;;;;;5074187;28;20142;-72
2022/09/25 05:52:31;;;;;;;7.45;4.85;;;10.60;99.90;;;;;;5074549;28;20043;-72
2022/09/25 05:54:57;;;;;;;6.95;5.13;;;10.60;99.90;;;;;;5074592;28;20024;-72
2022/09/25 05:57:22;;;;;;;5.75;4.65;;;10.60;99.90;;;;;;5074360;28;20457;-72
2022/09/25 05:59:49;;;;;;;5.93;5.00;;;10.60;99.90;;;;;;5074489;28;20029;-72
2022/09/25 06:02:15;;;;;;;5.60;4.75;;;10.70;99.90;;;;;;5055275;28;20397;-72
2022/09/25 06:04:41;;;;;;;7.20;5.30;;;10.70;99.90;;;;;;5073989;28;20024;-72
2022/09/25 06:07:08;;;;;;;6.68;4.78;;;10.70;99.90;;;;;;5048408;28;20033;-72
2022/09/25 06:09:35;;;;;;;7.22;4.45;;;10.70;99.90;;;;;;5074190;28;20024;-72
2022/09/25 06:12:01;;;;;;;6.55;4.82;;;10.80;99.90;;;;;;5074371;28;20031;-72
2022/09/25 06:14:27;;;;;;;7.85;5.18;;;10.80;99.90;;;;;;5074220;28;20028;-72
2022/09/25 06:16:52;;;;;;;9.68;6.40;;;10.80;99.90;;;;;;5074174;28;20035;-72
2022/09/25 06:19:18;;;;;;;7.13;5.07;;;10.90;99.90;;;;;;5073985;28;20540;-72
2022/09/25 06:21:44;;;;;;;7.50;4.93;;;10.90;99.90;;;;;;5068173;28;20036;-72
2022/09/25 06:24:09;;;;;;;8.07;5.03;;;10.90;99.90;;;;;;5073945;28;20027;-72
2022/09/25 06:26:37;;;;;;;7.38;5.63;;;10.90;99.90;;;;;;5073972;28;20029;-72
2022/09/25 06:29:02;;;;;;;7.90;5.75;;;10.90;99.90;;;;;;5073894;28;20029;-72
2022/09/25 06:31:28;;;;;;;8.38;5.32;;;10.90;99.90;;;;;;5073815;28;20034;-72
2022/09/25 06:33:54;;;;;;;7.82;5.38;;;10.90;99.90;;;;;;5073700;28;20032;-72
2022/09/25 06:36:21;;;;;;;6.75;4.95;;;10.90;99.90;;;;;;5066916;28;20124;-72
2022/09/25 06:38:48;;;;;;;7.70;4.90;;;11.00;99.90;;;;;;5072447;28;20032;-72
2022/09/25 06:41:13;;;;;;;6.45;4.90;;;11.00;99.90;;;;;;5073636;28;20036;-73
2022/09/25 06:43:39;;;;;;;5.50;4.40;;;11.00;99.90;;;;;;5073467;28;20025;-72
2022/09/25 06:46:05;;;;;;;6.82;4.45;;;11.00;99.90;;;;;;5073507;28;20381;-72
2022/09/25 06:48:30;;;;;;;5.85;4.38;;;11.10;99.90;;;;;;5073132;28;20499;-72
2022/09/25 06:51:00;;;;;;;5.22;3.97;;;11.10;99.90;;;;;;5072200;28;20028;-72
2022/09/25 06:53:26;;;;;;;6.40;4.28;;;11.10;99.90;;;;;;5052022;28;20025;-72
2022/09/25 06:55:55;;;;;;;6.10;4.47;;;11.20;99.90;;;;;;5072489;28;20020;-73
2022/09/25 06:58:22;;;;;;;8.27;5.00;;;11.20;99.90;;;;;;5073161;28;20043;-73
2022/09/25 07:00:50;;;;;;;8.30;5.10;;;11.20;99.90;;;;;;5073320;28;20499;-72
2022/09/25 07:06:01;;;;;;;6.78;5.22;;;11.30;99.90;;;;;;5073421;28;20074;-72
2022/09/25 07:08:27;;;;;;;6.50;4.43;;;11.40;99.90;;;;;;5053207;28;20044;-72
2022/09/25 07:10:54;;;;;;;6.63;4.53;;;11.40;99.90;;;;;;5073148;28;20390;-72
2022/09/25 07:13:26;;;;;;;7.80;5.18;;;11.50;99.90;;;;;;5072327;28;20020;-72
2022/09/25 07:16:06;;;;;;;7.88;4.97;;;11.60;99.90;;;;;;5073235;28;20020;-72
2022/09/25 07:18:32;;;;;;;7.03;5.03;;;11.70;99.90;;;;;;5072829;28;20074;-73
2022/09/25 07:21:04;;;;;;;11.02;6.80;;;11.80;99.90;;;;;;5072941;28;20538;-73
2022/09/25 07:23:30;;;;;;;12.00;7.90;;;11.90;99.90;;;;;;5072931;28;20055;-73
2022/09/25 07:26:02;;;;;;;11.27;6.55;;;11.90;99.90;;;;;;5055126;28;20025;-73
2022/09/25 07:28:28;;;;;;;9.77;6.43;;;11.90;99.90;;;;;;5073065;28;20056;-73
2022/09/25 07:30:54;;;;;;;9.73;6.97;;;11.90;99.90;;;;;;5071724;28;20512;-73
2022/09/25 07:33:23;;;;;;;8.60;6.75;;;11.90;99.90;;;;;;5054789;28;20060;-73
2022/09/25 07:35:51;;;;;;;10.80;7.68;;;11.90;99.90;;;;;;5072717;28;20025;-73
2022/09/25 07:38:17;;;;;;;10.48;7.68;;;11.90;99.90;;;;;;5071933;28;20028;-73
2022/09/25 07:40:43;;;;;;;10.70;7.18;;;12.00;99.90;;;;;;5072936;28;20051;-73
2022/09/25 07:43:09;;;;;;;10.80;7.40;;;12.00;99.90;;;;;;5054994;28;20052;-73
2022/09/25 07:45:35;;;;;;;9.07;6.75;;;12.10;99.90;;;;;;5054963;28;20020;-73
2022/09/25 07:48:02;;;;;;;8.10;6.68;;;12.20;99.90;;;;;;5072863;28;20032;-73
2022/09/25 07:50:30;;;;;;;7.60;6.03;;;12.20;99.90;;;;;;5072516;28;20029;-72
2022/09/25 07:52:56;;;;;;;8.18;5.95;;;12.20;99.90;;;;;;5072504;28;20567;-73
2022/09/25 07:55:22;;;;;;;7.78;5.60;;;12.30;99.90;;;;;;5072591;28;20028;-73
2022/09/25 07:57:49;;;;;;;9.40;5.75;;;12.30;99.90;;;;;;5072513;28;20094;-73
2022/09/25 08:00:15;;;;;;;7.70;5.90;;;12.30;99.90;;;;;;5071363;28;20107;-73
2022/09/25 08:02:41;;;;;;;9.85;6.45;;;12.30;99.90;;;;;;5072663;28;20033;-73
2022/09/25 08:05:08;;;;;;;7.53;5.22;;;12.40;99.90;;;;;;5071512;28;20035;-73
2022/09/25 08:07:34;;;;;;;9.93;6.85;;;12.50;99.90;;;;;;5072388;28;20040;-73
2022/09/25 08:09:59;;;;;;;9.93;7.00;;;12.60;99.90;;;;;;5074908;28;20082;-73
2022/09/25 08:12:25;;;;;;;10.40;7.82;;;12.60;99.90;;;;;;5076350;28;20021;-73
2022/09/25 08:14:52;;;;;;;12.95;6.97;;;12.70;99.90;;;;;;5075140;28;20495;-73
2022/09/25 08:17:21;;;;;;;12.35;8.30;;;12.80;99.90;;;;;;5076545;28;20033;-74
2022/09/25 08:19:47;;;;;;;10.82;8.00;;;12.90;99.90;;;;;;5076421;28;20033;-74
2022/09/25 08:22:13;;;;;;;14.27;9.77;;;13.10;99.90;;;;;;5075850;28;20047;-73
2022/09/25 08:24:38;;;;;;;12.77;9.30;;;13.20;99.90;;;;;;5075251;28;20021;-74
2022/09/25 08:27:06;;;;;;;12.93;8.55;;;13.30;99.90;;;;;;5076474;28;20028;-74
2022/09/25 08:29:32;;;;;;;12.88;9.07;;;13.40;99.90;;;;;;5076626;28;20116;-74
2022/09/25 08:31:58;;;;;;;12.90;9.18;;;13.50;99.90;;;;;;5076823;28;20099;-74
2022/09/25 08:34:23;;;;;;;13.77;9.73;;;13.60;99.90;;;;;;5076451;28;20035;-73
2022/09/25 08:36:49;;;;;;;10.93;8.50;;;13.60;99.90;;;;;;5076138;28;20472;-73
2022/09/25 08:39:16;;;;;;;12.73;8.93;;;13.70;99.90;;;;;;5074829;28;20115;-74
2022/09/25 08:41:51;;;;;;;14.07;10.82;;;13.80;99.90;;;;;;5076420;28;20464;-74
2022/09/25 08:44:31;;;;;;;10.30;8.10;;;13.90;99.90;;;;;;5076249;28;20051;-73
2022/09/25 08:50:21;;;;;;;12.80;8.75;;;14.00;99.90;;;;;;5076498;28;20392;-73
2022/09/25 08:52:50;;;;;;;12.07;9.07;;;14.10;99.90;;;;;;5076266;28;20032;-74
2022/09/25 08:56:19;;;;;;;12.07;9.50;;;14.20;99.90;;;;;;5075903;28;20025;-73
2022/09/25 08:58:25;;;;;;;13.27;10.13;;;14.30;99.90;;;;;;5068202;28;20175;-74
2022/09/25 09:01:03;;;;;;;11.98;9.25;;;14.40;99.90;;;;;;5075828;28;20479;-74
2022/09/25 09:03:31;;;;;;;10.55;8.68;;;14.40;99.90;;;;;;5057869;28;20040;-73
2022/09/25 09:06:07;;;;;;;9.68;7.28;;;14.40;99.90;;;;;;5075390;28;20472;-73
2022/09/25 09:08:36;;;;;;;10.02;8.20;;;14.50;99.90;;;;;;5075336;28;20028;-73
2022/09/25 09:11:04;;;;;;;13.63;9.85;;;14.60;99.90;;;;;;5075638;28;20125;-74
2022/09/25 09:13:47;;;;;;;11.65;9.68;;;14.70;99.90;;;;;;5075522;28;20106;-73
2022/09/25 09:16:21;;;;;;;10.73;8.50;;;14.70;99.90;;;;;;5076132;28;20487;-74
2022/09/25 09:18:47;;;;;;;12.75;10.48;;;14.80;99.90;;;;;;5075774;28;20032;-74
2022/09/25 09:21:15;;;;;;;9.77;8.40;;;14.90;99.90;;;;;;5074330;28;20389;-74
2022/09/25 09:24:02;;;;;;;10.77;8.27;;;15.00;99.90;;;;;;5075344;28;20031;-74
2022/09/25 09:26:35;;;;;;;9.85;7.68;;;15.10;99.90;;;;;;5075687;28;20023;-74
2022/09/25 09:29:18;;;;;;;12.52;8.27;;;15.20;99.90;;;;;;5075620;28;20039;-74
2022/09/25 09:32:10;;;;;;;10.57;8.48;;;15.20;99.90;;;;;;5075611;28;20112;-74
2022/09/25 09:34:44;;;;;;;11.57;9.05;;;15.20;99.90;;;;;;5075669;28;20029;-73
2022/09/25 09:37:40;;;;;;;14.27;9.35;;;15.30;99.90;;;;;;5075056;28;20051;-74
2022/09/25 09:40:40;;;;;;;9.30;6.95;;;15.30;99.90;;;;;;5075172;28;20150;-74
2022/09/25 09:43:28;;;;;;;9.18;7.20;;;15.40;99.90;;;;;;5075689;28;20376;-74
2022/09/25 09:46:20;;;;;;;9.52;7.22;;;15.40;99.90;;;;;;5075200;28;20017;-74
2022/09/25 09:49:22;;;;;;;10.60;7.75;;;15.40;99.90;;;;;;5076076;28;20025;-74
2022/09/25 09:51:48;;;;;;;10.07;7.75;;;15.40;99.90;;;;;;5075125;28;20103;-74
2022/09/25 09:54:20;;;;;;;9.65;6.93;;;15.30;99.90;;;;;;5074718;28;20082;-74
2022/09/25 09:56:50;;;;;;;12.23;7.75;;;15.30;99.90;;;;;;5074676;28;20415;-73
2022/09/25 09:59:22;;;;;;;9.45;7.32;;;15.30;99.90;;;;;;5074598;28;20060;-73
2022/09/25 10:02:03;;;;;;;8.98;6.95;;;15.30;99.90;;;;;;5074753;28;20079;-74
2022/09/25 10:04:35;;;;;;;11.65;7.03;;;15.30;99.90;;;;;;5074759;28;20020;-73
2022/09/25 10:07:22;;;;;;;8.00;6.30;;;15.40;99.90;;;;;;5074518;28;20021;-73
2022/09/25 10:09:53;;;;;;;10.18;7.78;;;15.50;99.90;;;;;;5074652;28;20028;-73
2022/09/25 10:12:33;;;;;;;8.98;7.05;;;15.60;99.90;;;;;;5075000;28;20024;-73
2022/09/25 10:15:06;;;;;;;9.40;7.35;;;15.70;99.90;;;;;;5074345;28;20040;-73
2022/09/25 10:17:34;;;;;;;9.07;7.32;;;15.80;99.90;;;;;;5074206;28;20050;-74
2022/09/25 10:20:11;;;;;;;8.55;7.10;;;15.90;99.90;;;;;;5074466;28;20427;-73
2022/09/25 10:22:41;;;;;;;7.50;6.05;;;15.90;99.90;;;;;;5073974;28;20074;-72
2022/09/25 10:25:07;;;;;;;7.78;6.03;;;16.00;99.90;;;;;;5072618;28;20056;-73
2022/09/25 10:27:35;;;;;;;6.90;5.72;;;16.10;99.90;;;;;;5074038;28;20020;-73
2022/09/25 10:30:10;;;;;;;10.52;7.05;;;16.20;99.90;;;;;;5074021;28;20035;-73
2022/09/25 10:32:56;;;;;;;9.43;6.93;;;16.40;99.90;;;;;;5073689;28;20480;-73
2022/09/25 10:35:44;;;;;;;11.70;7.85;;;16.60;99.90;;;;;;5073524;28;20032;-73
2022/09/25 10:38:42;;;;;;;8.65;5.80;;;16.90;99.90;;;;;;5073822;28;20020;-73
2022/09/25 10:41:18;;;;;;;6.88;5.00;;;17.00;99.90;;;;;;5073539;28;20048;-73
2022/09/25 10:43:52;;;;;;;6.03;4.88;;;17.20;99.90;;;;;;5073613;28;20029;-72
2022/09/25 10:52:10;;;;;;;4.95;3.78;;;17.50;99.90;;;;;;5069257;28;20043;-72
2022/09/25 10:54:37;;;;;;;5.50;3.78;;;17.40;99.90;;;;;;5073046;28;20082;-73
2022/09/25 10:57:37;;;;;;;6.38;3.20;;;17.40;99.90;;;;;;5073328;28;20603;-73
2022/09/25 11:00:17;;;;;;;9.98;6.30;;;17.40;99.90;;;;;;5073516;28;20549;-72
2022/09/25 11:02:45;;;;;;;6.60;4.78;;;17.40;99.90;;;;;;5054428;28;20136;-73
2022/09/25 11:05:18;;;;;;;4.75;3.20;;;17.40;99.90;;;;;;5073239;28;20033;-72
2022/09/25 11:07:54;;;;;;;2.80;2.20;;;17.40;99.90;;;;;;5072999;28;20434;-73
2022/09/25 11:10:24;;;;;;;3.95;2.40;;;17.30;99.90;;;;;;5073180;28;20018;-73
2022/09/25 11:12:51;;;;;;;3.05;1.95;;;17.40;99.90;;;;;;5073138;28;20020;-73
2022/09/25 11:15:24;;;;;;;4.32;2.30;;;17.50;99.90;;;;;;5073098;28;20025;-73
2022/09/25 11:17:53;;;;;;;3.03;2.10;;;17.60;99.90;;;;;;5051741;28;20424;-73
2022/09/25 11:20:28;;;;;;;3.17;2.08;;;17.70;99.90;;;;;;5050622;28;20083;-73
2022/09/25 11:23:40;;;;;;;12.05;2.38;;;17.80;99.90;;;;;;5072835;28;20019;-73
2022/09/25 11:26:06;;;;;;;2.78;1.92;;;17.70;99.90;;;;;;5072322;28;20058;-73
2022/09/25 11:29:00;;;;;;;4.18;2.10;;;17.60;99.90;;;;;;5073081;28;20028;-71
2022/09/25 11:31:41;;;;;;;3.78;1.83;;;17.60;99.90;;;;;;5073216;28;20029;-73
2022/09/25 11:34:41;;;;;;;2.70;1.77;;;17.50;99.90;;;;;;5073035;28;20070;-73
2022/09/25 11:37:26;;;;;;;3.17;1.93;;;17.30;99.90;;;;;;5072751;28;20043;-73
2022/09/25 11:43:13;;;;;;;2.55;1.50;;;17.20;99.90;;;;;;5072815;28;20032;-72
2022/09/25 11:45:52;;;;;;;2.78;1.50;;;17.10;99.90;;;;;;5067836;28;20436;-73
2022/09/25 11:48:23;;;;;;;2.25;1.58;;;17.10;99.90;;;;;;5072867;28;20039;-73
2022/09/25 11:51:27;;;;;;;2.65;1.48;;;17.10;99.90;;;;;;5067445;28;20504;-72
2022/09/25 11:54:07;;;;;;;2.10;1.48;;;17.00;99.90;;;;;;5072751;28;20423;-73
2022/09/25 11:56:55;;;;;;;2.45;1.50;;;17.00;99.20;;;;;;5072798;28;20392;-72
2022/09/25 11:59:42;;;;;;;1.83;1.10;;;16.90;99.90;;;;;;5072580;28;20028;-72
2022/09/25 12:02:24;;;;;;;2.45;1.30;;;16.90;98.20;;;;;;5072694;28;20020;-73
2022/09/25 12:05:21;;;;;;;2.80;2.10;;;16.90;99.70;;;;;;5073072;28;20433;-72
2022/09/25 12:07:57;;;;;;;5.32;2.20;;;16.90;99.90;;;;;;5021764;28;20097;-73
2022/09/25 12:10:42;;;;;;;4.32;2.55;;;16.90;99.90;;;;;;5072426;28;20440;-72
2022/09/25 12:13:26;;;;;;;3.75;2.15;;;17.00;99.70;;;;;;5072609;28;20031;-73
2022/09/25 12:16:07;;;;;;;4.57;1.60;;;17.10;99.40;;;;;;5072634;28;20074;-72
2022/09/25 12:18:48;;;;;;;4.70;2.90;;;17.10;99.90;;;;;;5072652;28;20046;-72
2022/09/25 12:21:35;;;;;;;2.80;1.58;;;17.20;98.50;;;;;;5072261;28;20039;-72
2022/09/25 12:24:40;;;;;;;2.20;1.40;;;17.30;98.50;;;;;;5072430;28;20023;-72
2022/09/25 12:27:31;;;;;;;1.70;1.30;;;17.40;98.50;;;;;;5064635;28;20060;-72
2022/09/25 12:30:07;;;;;;;2.40;1.33;;;17.50;97.50;;;;;;5072476;28;20373;-72
2022/09/25 12:33:01;;;;;;;2.03;1.15;;;17.50;97.10;;;;;;5072458;28;20500;-70
2022/09/25 12:35:39;;;;;;;2.22;1.40;;;17.40;97.20;;;;;;5072357;28;20033;-72
2022/09/25 12:38:20;;;;;;;2.13;1.20;;;17.30;97.70;;;;;;5071999;28;20473;-72
2022/09/25 12:40:57;;;;;;;5.82;1.50;;;17.30;98.00;;;;;;5051140;28;20127;-72
2022/09/25 12:43:29;;;;;;;3.15;1.30;;;17.20;98.80;;;;;;5072260;28;20020;-72
2022/09/25 12:45:57;;;;;;;2.40;1.60;;;17.10;98.50;;;;;;5070409;28;20047;-72
2022/09/25 12:48:29;;;;;;;3.25;1.50;;;17.10;98.30;;;;;;5052361;28;20503;-72
2022/09/25 12:50:54;;;;;;;;;;;17.00;98.00;;;;;;5070504;28;20354;-72
2022/09/25 12:54:00;;;;;;;2.38;1.38;;;17.00;97.30;;;;;;5052299;28;19930;-72
2022/09/25 12:56:36;;;;;;;2.47;1.30;;;17.00;96.90;;;;;;5045171;28;20094;-73
2022/09/25 12:59:16;;;;;;;1.92;1.10;;;17.00;97.70;;;;;;5076129;28;20469;-73
2022/09/25 13:01:52;;;;;;;1.83;1.30;;;16.90;97.60;;;;;;5076144;28;20108;-73
2022/09/25 13:04:48;;;;;;;2.30;1.50;;;16.90;98.40;;;;;;5075837;28;20020;-72
2022/09/25 13:07:42;;;;;;;3.25;2.30;;;16.80;98.70;;;;;;5075562;28;20048;-73
2022/09/25 13:10:32;;;;;;;2.50;1.45;;;16.80;99.50;;;;;;5075643;28;20021;-72
2022/09/25 13:13:02;;;;;;;2.53;1.13;;;16.60;99.90;;;;;;5076026;28;20017;-73
2022/09/25 13:15:35;;;;;;;2.10;1.35;;;16.50;99.90;;;;;;5057492;28;20411;-72
2022/09/25 13:18:04;;;;;;;2.50;1.40;;;16.40;99.90;;;;;;5075521;28;20070;-72
2022/09/25 13:20:30;;;;;;;4.90;2.60;;;16.30;99.90;;;;;;5075762;28;20027;-72
2022/09/25 13:23:04;;;;;;;4.53;2.70;;;16.20;99.90;;;;;;5075185;28;20020;-72
2022/09/25 13:25:40;;;;;;;7.78;5.05;;;16.20;99.90;;;;;;5075811;28;20017;-72
2022/09/25 13:28:13;;;;;;;5.20;3.70;;;16.20;99.90;;;;;;5076238;28;20471;-72
2022/09/25 13:30:39;;;;;;;12.25;7.10;;;16.10;99.90;;;;;;5057464;28;20025;-72
2022/09/25 13:33:04;;;;;;;3.72;1.63;;;16.10;99.90;;;;;;5075334;28;20103;-73
2022/09/25 13:35:32;;;;;;;5.22;2.63;;;16.10;99.90;;;;;;5075381;28;20025;-70
2022/09/25 13:40:41;;;;;;;3.42;1.90;;;16.10;99.90;;;;;;5074859;28;20051;-72
2022/09/25 13:41:13;;;;;;;2.30;1.65;;;16.10;99.90;;;;;;5074986;28;20391;-72